sensor_id;sensor_type;location;lat;lon;timestamp;P1;durP1;ratioP1;P2;durP2;ratioP2
20093;SDS011;10206;48.012;10.030;2022-12-18T00:01:04;63.33;;;24.73;;
20093;SDS011;10206;48.012;10.030;2022-12-18T00:03:38;58.73;;;22.70;;
20093;SDS011;10206;48.012;10.030;2022-12-18T00:06:04;55.63;;;22.20;;
20093;SDS011;10206;48.012;10.030;2022-12-18T00:08:30;55.17;;;22.93;;
20093;SDS011;10206;48.012;10.030;2022-12-18T00:11:02;58.77;;;23.13;;
20093;SDS011;10206;48.012;10.030;2022-12-18T00:13:30;50.53;;;20.20;;
20093;SDS011;10206;48.012;10.030;2022-12-18T00:16:00;57.20;;;23.03;;
20093;SDS011;10206;48.012;10.030;2022-12-18T00:18:32;52.23;;;20.30;;
20093;SDS011;10206;48.012;10.030;2022-12-18T00:20:58;55.13;;;21.37;;
20093;SDS011;10206;48.012;10.030;2022-12-18T00:23:26;54.60;;;22.57;;
20093;SDS011;10206;48.012;10.030;2022-12-18T00:25:53;54.00;;;22.07;;
20093;SDS011;10206;48.012;10.030;2022-12-18T00:28:19;60.50;;;22.10;;
20093;SDS011;10206;48.012;10.030;2022-12-18T00:30:45;57.90;;;22.97;;
20093;SDS011;10206;48.012;10.030;2022-12-18T00:33:11;53.53;;;21.27;;
20093;SDS011;10206;48.012;10.030;2022-12-18T00:35:37;58.13;;;20.63;;
20093;SDS011;10206;48.012;10.030;2022-12-18T00:38:03;57.17;;;23.17;;
20093;SDS011;10206;48.012;10.030;2022-12-18T00:40:31;53.73;;;20.73;;
20093;SDS011;10206;48.012;10.030;2022-12-18T00:42:57;57.50;;;21.37;;
20093;SDS011;10206;48.012;10.030;2022-12-18T00:45:32;50.30;;;21.33;;
20093;SDS011;10206;48.012;10.030;2022-12-18T00:47:58;53.67;;;22.23;;
20093;SDS011;10206;48.012;10.030;2022-12-18T00:50:25;54.50;;;20.87;;
20093;SDS011;10206;48.012;10.030;2022-12-18T00:52:51;54.60;;;21.97;;
20093;SDS011;10206;48.012;10.030;2022-12-18T00:55:18;56.37;;;21.73;;
20093;SDS011;10206;48.012;10.030;2022-12-18T00:57:44;60.27;;;22.53;;
20093;SDS011;10206;48.012;10.030;2022-12-18T01:00:11;57.90;;;22.30;;
20093;SDS011;10206;48.012;10.030;2022-12-18T01:02:39;59.13;;;22.93;;
20093;SDS011;10206;48.012;10.030;2022-12-18T01:05:05;52.87;;;21.87;;
20093;SDS011;10206;48.012;10.030;2022-12-18T01:07:32;54.93;;;22.27;;
20093;SDS011;10206;48.012;10.030;2022-12-18T01:09:58;53.07;;;21.27;;
20093;SDS011;10206;48.012;10.030;2022-12-18T01:12:24;53.60;;;21.77;;
20093;SDS011;10206;48.012;10.030;2022-12-18T01:14:50;52.27;;;20.93;;
20093;SDS011;10206;48.012;10.030;2022-12-18T01:17:16;55.07;;;22.70;;
20093;SDS011;10206;48.012;10.030;2022-12-18T01:19:42;56.80;;;22.07;;
20093;SDS011;10206;48.012;10.030;2022-12-18T01:22:09;52.90;;;23.10;;
20093;SDS011;10206;48.012;10.030;2022-12-18T01:24:35;55.10;;;22.23;;
20093;SDS011;10206;48.012;10.030;2022-12-18T01:27:01;60.83;;;22.70;;
20093;SDS011;10206;48.012;10.030;2022-12-18T01:29:27;58.77;;;23.07;;
20093;SDS011;10206;48.012;10.030;2022-12-18T01:31:54;59.13;;;22.23;;
20093;SDS011;10206;48.012;10.030;2022-12-18T01:34:21;55.13;;;21.63;;
20093;SDS011;10206;48.012;10.030;2022-12-18T01:36:48;47.27;;;19.23;;
20093;SDS011;10206;48.012;10.030;2022-12-18T01:39:14;54.27;;;21.17;;
20093;SDS011;10206;48.012;10.030;2022-12-18T01:41:41;53.73;;;21.77;;
20093;SDS011;10206;48.012;10.030;2022-12-18T01:49:52;50.33;;;19.70;;
20093;SDS011;10206;48.012;10.030;2022-12-18T01:52:20;54.03;;;21.50;;
20093;SDS011;10206;48.012;10.030;2022-12-18T01:54:49;55.00;;;21.27;;
20093;SDS011;10206;48.012;10.030;2022-12-18T01:57:17;51.70;;;21.13;;
20093;SDS011;10206;48.012;10.030;2022-12-18T01:59:44;58.70;;;21.50;;
20093;SDS011;10206;48.012;10.030;2022-12-18T02:02:15;55.50;;;20.07;;
20093;SDS011;10206;48.012;10.030;2022-12-18T02:04:42;59.37;;;20.20;;
20093;SDS011;10206;48.012;10.030;2022-12-18T02:12:41;53.50;;;20.47;;
20093;SDS011;10206;48.012;10.030;2022-12-18T02:17:52;52.70;;;20.03;;
20093;SDS011;10206;48.012;10.030;2022-12-18T02:20:36;54.93;;;19.13;;
20093;SDS011;10206;48.012;10.030;2022-12-18T02:28:15;48.83;;;18.83;;
20093;SDS011;10206;48.012;10.030;2022-12-18T02:30:45;54.20;;;20.80;;
20093;SDS011;10206;48.012;10.030;2022-12-18T02:33:15;50.77;;;19.73;;
20093;SDS011;10206;48.012;10.030;2022-12-18T02:35:43;55.00;;;21.33;;
20093;SDS011;10206;48.012;10.030;2022-12-18T02:38:10;50.03;;;19.50;;
20093;SDS011;10206;48.012;10.030;2022-12-18T02:40:39;51.90;;;19.57;;
20093;SDS011;10206;48.012;10.030;2022-12-18T02:43:10;50.60;;;19.93;;
20093;SDS011;10206;48.012;10.030;2022-12-18T02:45:48;48.97;;;20.40;;
20093;SDS011;10206;48.012;10.030;2022-12-18T02:48:20;48.70;;;19.87;;
20093;SDS011;10206;48.012;10.030;2022-12-18T02:50:56;49.80;;;20.20;;
20093;SDS011;10206;48.012;10.030;2022-12-18T02:53:30;50.43;;;20.57;;
20093;SDS011;10206;48.012;10.030;2022-12-18T02:56:15;51.20;;;19.73;;
20093;SDS011;10206;48.012;10.030;2022-12-18T03:01:35;51.60;;;20.27;;
20093;SDS011;10206;48.012;10.030;2022-12-18T03:06:49;52.30;;;20.83;;
20093;SDS011;10206;48.012;10.030;2022-12-18T03:09:21;54.13;;;19.50;;
20093;SDS011;10206;48.012;10.030;2022-12-18T03:11:56;54.10;;;20.80;;
20093;SDS011;10206;48.012;10.030;2022-12-18T03:14:47;52.37;;;19.60;;
20093;SDS011;10206;48.012;10.030;2022-12-18T03:17:20;45.63;;;18.83;;
20093;SDS011;10206;48.012;10.030;2022-12-18T03:19:50;45.90;;;19.30;;
20093;SDS011;10206;48.012;10.030;2022-12-18T03:22:18;51.10;;;20.30;;
20093;SDS011;10206;48.012;10.030;2022-12-18T03:24:47;47.43;;;19.33;;
20093;SDS011;10206;48.012;10.030;2022-12-18T03:27:14;48.10;;;20.40;;
20093;SDS011;10206;48.012;10.030;2022-12-18T03:29:44;53.07;;;20.33;;
20093;SDS011;10206;48.012;10.030;2022-12-18T03:32:30;55.53;;;20.87;;
20093;SDS011;10206;48.012;10.030;2022-12-18T03:34:59;50.40;;;20.43;;
20093;SDS011;10206;48.012;10.030;2022-12-18T03:37:28;47.77;;;20.27;;
20093;SDS011;10206;48.012;10.030;2022-12-18T03:39:55;50.47;;;19.63;;
20093;SDS011;10206;48.012;10.030;2022-12-18T03:48:11;54.03;;;20.03;;
20093;SDS011;10206;48.012;10.030;2022-12-18T03:50:46;54.50;;;21.23;;
20093;SDS011;10206;48.012;10.030;2022-12-18T03:56:20;54.40;;;20.97;;
20093;SDS011;10206;48.012;10.030;2022-12-18T03:58:48;52.60;;;20.33;;
20093;SDS011;10206;48.012;10.030;2022-12-18T04:01:17;47.50;;;19.90;;
20093;SDS011;10206;48.012;10.030;2022-12-18T04:03:47;52.53;;;19.90;;
20093;SDS011;10206;48.012;10.030;2022-12-18T04:06:15;53.63;;;18.87;;
20093;SDS011;10206;48.012;10.030;2022-12-18T04:08:43;52.50;;;20.63;;
20093;SDS011;10206;48.012;10.030;2022-12-18T04:11:10;53.73;;;20.73;;
20093;SDS011;10206;48.012;10.030;2022-12-18T04:13:36;48.03;;;18.93;;
20093;SDS011;10206;48.012;10.030;2022-12-18T04:16:03;49.57;;;19.43;;
20093;SDS011;10206;48.012;10.030;2022-12-18T04:18:30;53.40;;;21.53;;
20093;SDS011;10206;48.012;10.030;2022-12-18T04:20:56;53.97;;;21.00;;
20093;SDS011;10206;48.012;10.030;2022-12-18T04:23:22;56.67;;;21.87;;
20093;SDS011;10206;48.012;10.030;2022-12-18T04:25:48;52.33;;;20.53;;
20093;SDS011;10206;48.012;10.030;2022-12-18T04:28:14;50.83;;;20.33;;
20093;SDS011;10206;48.012;10.030;2022-12-18T04:30:40;56.20;;;22.37;;
20093;SDS011;10206;48.012;10.030;2022-12-18T04:33:10;49.77;;;20.13;;
20093;SDS011;10206;48.012;10.030;2022-12-18T04:35:38;51.57;;;20.03;;
20093;SDS011;10206;48.012;10.030;2022-12-18T04:38:05;52.10;;;20.60;;
20093;SDS011;10206;48.012;10.030;2022-12-18T04:40:33;54.67;;;20.47;;
20093;SDS011;10206;48.012;10.030;2022-12-18T04:42:59;54.37;;;20.67;;
20093;SDS011;10206;48.012;10.030;2022-12-18T04:45:25;52.50;;;21.60;;
20093;SDS011;10206;48.012;10.030;2022-12-18T04:47:51;56.43;;;21.93;;
20093;SDS011;10206;48.012;10.030;2022-12-18T04:50:18;56.80;;;20.87;;
20093;SDS011;10206;48.012;10.030;2022-12-18T04:52:44;54.53;;;21.53;;
20093;SDS011;10206;48.012;10.030;2022-12-18T04:55:10;55.13;;;20.73;;
20093;SDS011;10206;48.012;10.030;2022-12-18T04:57:36;58.53;;;21.73;;
20093;SDS011;10206;48.012;10.030;2022-12-18T05:00:02;53.27;;;21.17;;
20093;SDS011;10206;48.012;10.030;2022-12-18T05:02:29;54.33;;;20.23;;
20093;SDS011;10206;48.012;10.030;2022-12-18T05:04:55;54.70;;;21.17;;
20093;SDS011;10206;48.012;10.030;2022-12-18T05:07:21;55.83;;;21.03;;
20093;SDS011;10206;48.012;10.030;2022-12-18T05:09:47;51.70;;;20.60;;
20093;SDS011;10206;48.012;10.030;2022-12-18T05:12:13;55.63;;;21.33;;
20093;SDS011;10206;48.012;10.030;2022-12-18T05:14:39;53.37;;;19.77;;
20093;SDS011;10206;48.012;10.030;2022-12-18T05:17:05;48.87;;;20.10;;
20093;SDS011;10206;48.012;10.030;2022-12-18T05:19:31;55.20;;;20.43;;
20093;SDS011;10206;48.012;10.030;2022-12-18T05:21:57;55.70;;;20.10;;
20093;SDS011;10206;48.012;10.030;2022-12-18T05:24:23;58.37;;;22.90;;
20093;SDS011;10206;48.012;10.030;2022-12-18T05:26:49;52.07;;;21.30;;
20093;SDS011;10206;48.012;10.030;2022-12-18T05:29:15;56.10;;;22.33;;
20093;SDS011;10206;48.012;10.030;2022-12-18T05:31:41;55.63;;;21.87;;
20093;SDS011;10206;48.012;10.030;2022-12-18T05:34:08;56.33;;;20.93;;
20093;SDS011;10206;48.012;10.030;2022-12-18T05:36:34;53.07;;;19.93;;
20093;SDS011;10206;48.012;10.030;2022-12-18T05:39:00;51.53;;;19.37;;
20093;SDS011;10206;48.012;10.030;2022-12-18T05:41:26;60.40;;;21.77;;
20093;SDS011;10206;48.012;10.030;2022-12-18T05:43:53;54.80;;;20.10;;
20093;SDS011;10206;48.012;10.030;2022-12-18T05:46:20;58.77;;;21.07;;
20093;SDS011;10206;48.012;10.030;2022-12-18T05:48:46;50.97;;;19.43;;
20093;SDS011;10206;48.012;10.030;2022-12-18T05:51:14;52.83;;;21.07;;
20093;SDS011;10206;48.012;10.030;2022-12-18T05:53:42;53.33;;;21.67;;
20093;SDS011;10206;48.012;10.030;2022-12-18T05:56:09;54.90;;;19.70;;
20093;SDS011;10206;48.012;10.030;2022-12-18T05:58:37;51.97;;;19.23;;
20093;SDS011;10206;48.012;10.030;2022-12-18T06:01:11;51.53;;;19.70;;
20093;SDS011;10206;48.012;10.030;2022-12-18T06:03:39;51.90;;;19.57;;
20093;SDS011;10206;48.012;10.030;2022-12-18T06:08:45;54.83;;;20.60;;
20093;SDS011;10206;48.012;10.030;2022-12-18T06:11:11;52.07;;;19.50;;
20093;SDS011;10206;48.012;10.030;2022-12-18T06:13:38;53.83;;;20.57;;
20093;SDS011;10206;48.012;10.030;2022-12-18T06:16:04;52.57;;;20.73;;
20093;SDS011;10206;48.012;10.030;2022-12-18T06:18:31;54.13;;;19.97;;
20093;SDS011;10206;48.012;10.030;2022-12-18T06:20:58;54.70;;;20.10;;
20093;SDS011;10206;48.012;10.030;2022-12-18T06:23:25;52.20;;;20.47;;
20093;SDS011;10206;48.012;10.030;2022-12-18T06:25:52;53.17;;;20.03;;
20093;SDS011;10206;48.012;10.030;2022-12-18T06:28:18;51.23;;;19.07;;
20093;SDS011;10206;48.012;10.030;2022-12-18T06:30:45;47.10;;;18.67;;
20093;SDS011;10206;48.012;10.030;2022-12-18T06:33:13;50.93;;;18.73;;
20093;SDS011;10206;48.012;10.030;2022-12-18T06:35:40;49.57;;;18.70;;
20093;SDS011;10206;48.012;10.030;2022-12-18T06:38:06;53.37;;;19.43;;
20093;SDS011;10206;48.012;10.030;2022-12-18T06:40:32;51.33;;;19.33;;
20093;SDS011;10206;48.012;10.030;2022-12-18T06:42:59;48.97;;;18.60;;
20093;SDS011;10206;48.012;10.030;2022-12-18T06:45:25;49.20;;;18.60;;
20093;SDS011;10206;48.012;10.030;2022-12-18T06:47:51;44.77;;;17.63;;
20093;SDS011;10206;48.012;10.030;2022-12-18T06:50:17;51.23;;;20.00;;
20093;SDS011;10206;48.012;10.030;2022-12-18T06:52:43;48.67;;;19.50;;
20093;SDS011;10206;48.012;10.030;2022-12-18T06:55:09;47.40;;;18.63;;
20093;SDS011;10206;48.012;10.030;2022-12-18T06:57:36;45.17;;;17.80;;
20093;SDS011;10206;48.012;10.030;2022-12-18T07:00:03;46.30;;;17.87;;
20093;SDS011;10206;48.012;10.030;2022-12-18T07:02:31;45.53;;;17.17;;
20093;SDS011;10206;48.012;10.030;2022-12-18T07:04:57;44.13;;;17.70;;
20093;SDS011;10206;48.012;10.030;2022-12-18T07:07:23;45.20;;;16.90;;
20093;SDS011;10206;48.012;10.030;2022-12-18T07:09:49;46.60;;;16.70;;
20093;SDS011;10206;48.012;10.030;2022-12-18T07:12:16;70.37;;;26.90;;
20093;SDS011;10206;48.012;10.030;2022-12-18T07:14:42;49.17;;;19.57;;
20093;SDS011;10206;48.012;10.030;2022-12-18T07:17:08;44.70;;;16.67;;
20093;SDS011;10206;48.012;10.030;2022-12-18T07:19:34;39.90;;;15.63;;
20093;SDS011;10206;48.012;10.030;2022-12-18T07:22:01;47.30;;;17.23;;
20093;SDS011;10206;48.012;10.030;2022-12-18T07:24:27;48.27;;;16.90;;
20093;SDS011;10206;48.012;10.030;2022-12-18T07:26:53;52.87;;;18.93;;
20093;SDS011;10206;48.012;10.030;2022-12-18T07:29:19;42.80;;;16.10;;
20093;SDS011;10206;48.012;10.030;2022-12-18T07:31:45;45.80;;;17.13;;
20093;SDS011;10206;48.012;10.030;2022-12-18T07:34:12;41.27;;;14.93;;
20093;SDS011;10206;48.012;10.030;2022-12-18T07:36:40;44.77;;;18.10;;
20093;SDS011;10206;48.012;10.030;2022-12-18T07:39:06;43.33;;;16.57;;
20093;SDS011;10206;48.012;10.030;2022-12-18T07:41:32;48.93;;;16.47;;
20093;SDS011;10206;48.012;10.030;2022-12-18T07:43:58;40.87;;;16.63;;
20093;SDS011;10206;48.012;10.030;2022-12-18T07:46:24;38.00;;;14.50;;
20093;SDS011;10206;48.012;10.030;2022-12-18T07:48:50;39.80;;;15.80;;
20093;SDS011;10206;48.012;10.030;2022-12-18T07:51:17;46.77;;;18.47;;
20093;SDS011;10206;48.012;10.030;2022-12-18T07:53:43;46.67;;;17.50;;
20093;SDS011;10206;48.012;10.030;2022-12-18T07:56:11;47.40;;;18.60;;
20093;SDS011;10206;48.012;10.030;2022-12-18T07:58:38;41.50;;;17.83;;
20093;SDS011;10206;48.012;10.030;2022-12-18T08:03:31;64.10;;;22.07;;
20093;SDS011;10206;48.012;10.030;2022-12-18T08:06:00;53.87;;;19.10;;
20093;SDS011;10206;48.012;10.030;2022-12-18T08:08:28;44.67;;;15.87;;
20093;SDS011;10206;48.012;10.030;2022-12-18T08:10:55;44.20;;;17.70;;
20093;SDS011;10206;48.012;10.030;2022-12-18T08:13:21;42.50;;;17.67;;
20093;SDS011;10206;48.012;10.030;2022-12-18T08:15:57;41.63;;;16.27;;
20093;SDS011;10206;48.012;10.030;2022-12-18T08:18:28;48.30;;;16.97;;
20093;SDS011;10206;48.012;10.030;2022-12-18T08:20:55;40.33;;;15.27;;
20093;SDS011;10206;48.012;10.030;2022-12-18T08:23:21;44.27;;;16.07;;
20093;SDS011;10206;48.012;10.030;2022-12-18T08:25:47;40.77;;;15.70;;
20093;SDS011;10206;48.012;10.030;2022-12-18T08:28:15;46.00;;;16.53;;
20093;SDS011;10206;48.012;10.030;2022-12-18T08:30:41;42.97;;;15.77;;
20093;SDS011;10206;48.012;10.030;2022-12-18T08:33:07;45.10;;;16.83;;
20093;SDS011;10206;48.012;10.030;2022-12-18T08:35:36;43.43;;;17.60;;
20093;SDS011;10206;48.012;10.030;2022-12-18T08:38:03;42.57;;;15.27;;
20093;SDS011;10206;48.012;10.030;2022-12-18T08:40:29;40.60;;;15.10;;
20093;SDS011;10206;48.012;10.030;2022-12-18T08:42:55;38.83;;;14.50;;
20093;SDS011;10206;48.012;10.030;2022-12-18T08:45:40;42.50;;;16.10;;
20093;SDS011;10206;48.012;10.030;2022-12-18T08:48:06;44.70;;;16.43;;
20093;SDS011;10206;48.012;10.030;2022-12-18T08:50:32;43.90;;;14.83;;
20093;SDS011;10206;48.012;10.030;2022-12-18T08:52:58;41.50;;;15.33;;
20093;SDS011;10206;48.012;10.030;2022-12-18T08:55:25;42.80;;;15.10;;
20093;SDS011;10206;48.012;10.030;2022-12-18T08:57:51;44.17;;;16.83;;
20093;SDS011;10206;48.012;10.030;2022-12-18T09:00:17;44.47;;;15.87;;
20093;SDS011;10206;48.012;10.030;2022-12-18T09:02:43;42.27;;;16.80;;
20093;SDS011;10206;48.012;10.030;2022-12-18T09:05:09;39.97;;;16.87;;
20093;SDS011;10206;48.012;10.030;2022-12-18T09:07:35;43.77;;;15.87;;
20093;SDS011;10206;48.012;10.030;2022-12-18T09:10:02;47.43;;;16.40;;
20093;SDS011;10206;48.012;10.030;2022-12-18T09:12:29;49.87;;;18.27;;
20093;SDS011;10206;48.012;10.030;2022-12-18T09:14:55;43.77;;;18.30;;
20093;SDS011;10206;48.012;10.030;2022-12-18T09:17:21;44.93;;;17.07;;
20093;SDS011;10206;48.012;10.030;2022-12-18T09:19:48;44.00;;;16.53;;
20093;SDS011;10206;48.012;10.030;2022-12-18T09:22:14;43.10;;;17.27;;
20093;SDS011;10206;48.012;10.030;2022-12-18T09:24:40;41.27;;;16.63;;
20093;SDS011;10206;48.012;10.030;2022-12-18T09:27:06;44.33;;;17.87;;
20093;SDS011;10206;48.012;10.030;2022-12-18T09:29:32;41.80;;;17.13;;
20093;SDS011;10206;48.012;10.030;2022-12-18T09:31:59;40.67;;;16.00;;
20093;SDS011;10206;48.012;10.030;2022-12-18T09:34:25;39.47;;;17.03;;
20093;SDS011;10206;48.012;10.030;2022-12-18T09:36:51;42.57;;;16.70;;
20093;SDS011;10206;48.012;10.030;2022-12-18T09:39:17;39.70;;;16.37;;
20093;SDS011;10206;48.012;10.030;2022-12-18T09:44:26;40.53;;;16.87;;
20093;SDS011;10206;48.012;10.030;2022-12-18T09:49:26;42.00;;;15.07;;
20093;SDS011;10206;48.012;10.030;2022-12-18T09:54:22;38.53;;;16.67;;
20093;SDS011;10206;48.012;10.030;2022-12-18T09:56:55;38.53;;;15.63;;
20093;SDS011;10206;48.012;10.030;2022-12-18T09:59:26;38.00;;;15.27;;
20093;SDS011;10206;48.012;10.030;2022-12-18T10:01:58;36.43;;;14.83;;
20093;SDS011;10206;48.012;10.030;2022-12-18T10:04:24;38.27;;;15.03;;
20093;SDS011;10206;48.012;10.030;2022-12-18T10:06:56;34.63;;;14.77;;
20093;SDS011;10206;48.012;10.030;2022-12-18T10:09:29;32.97;;;13.47;;
20093;SDS011;10206;48.012;10.030;2022-12-18T10:12:12;33.97;;;13.80;;
20093;SDS011;10206;48.012;10.030;2022-12-18T10:14:57;35.57;;;15.60;;
20093;SDS011;10206;48.012;10.030;2022-12-18T10:26:04;34.07;;;13.60;;
20093;SDS011;10206;48.012;10.030;2022-12-18T10:28:35;34.57;;;13.70;;
20093;SDS011;10206;48.012;10.030;2022-12-18T10:31:22;36.93;;;14.60;;
20093;SDS011;10206;48.012;10.030;2022-12-18T10:33:49;36.63;;;15.40;;
20093;SDS011;10206;48.012;10.030;2022-12-18T10:36:16;39.97;;;16.50;;
20093;SDS011;10206;48.012;10.030;2022-12-18T10:38:42;43.87;;;20.87;;
20093;SDS011;10206;48.012;10.030;2022-12-18T10:43:44;33.80;;;14.23;;
20093;SDS011;10206;48.012;10.030;2022-12-18T10:48:55;39.43;;;15.43;;
20093;SDS011;10206;48.012;10.030;2022-12-18T10:51:23;39.83;;;16.10;;
20093;SDS011;10206;48.012;10.030;2022-12-18T10:54:05;39.23;;;15.47;;
20093;SDS011;10206;48.012;10.030;2022-12-18T10:56:52;36.97;;;16.30;;
20093;SDS011;10206;48.012;10.030;2022-12-18T10:59:52;34.47;;;14.73;;
20093;SDS011;10206;48.012;10.030;2022-12-18T11:02:34;35.03;;;14.97;;
20093;SDS011;10206;48.012;10.030;2022-12-18T11:05:02;34.87;;;14.80;;
20093;SDS011;10206;48.012;10.030;2022-12-18T11:07:48;38.70;;;15.17;;
20093;SDS011;10206;48.012;10.030;2022-12-18T11:10:18;41.60;;;15.73;;
20093;SDS011;10206;48.012;10.030;2022-12-18T11:12:46;31.27;;;14.30;;
20093;SDS011;10206;48.012;10.030;2022-12-18T11:15:16;35.00;;;14.47;;
20093;SDS011;10206;48.012;10.030;2022-12-18T11:17:46;39.73;;;15.47;;
20093;SDS011;10206;48.012;10.030;2022-12-18T11:20:27;34.87;;;14.90;;
20093;SDS011;10206;48.012;10.030;2022-12-18T11:23:00;39.00;;;16.53;;
20093;SDS011;10206;48.012;10.030;2022-12-18T11:25:31;43.10;;;17.17;;
20093;SDS011;10206;48.012;10.030;2022-12-18T11:27:59;41.67;;;17.83;;
20093;SDS011;10206;48.012;10.030;2022-12-18T11:30:31;39.53;;;17.07;;
20093;SDS011;10206;48.012;10.030;2022-12-18T11:35:38;39.13;;;16.07;;
20093;SDS011;10206;48.012;10.030;2022-12-18T11:43:29;33.57;;;13.90;;
20093;SDS011;10206;48.012;10.030;2022-12-18T11:46:11;32.47;;;13.67;;
20093;SDS011;10206;48.012;10.030;2022-12-18T11:48:45;34.33;;;13.83;;
20093;SDS011;10206;48.012;10.030;2022-12-18T11:51:34;33.07;;;13.80;;
20093;SDS011;10206;48.012;10.030;2022-12-18T11:54:22;30.83;;;13.93;;
20093;SDS011;10206;48.012;10.030;2022-12-18T11:59:49;33.70;;;13.90;;
20093;SDS011;10206;48.012;10.030;2022-12-18T12:07:38;37.67;;;14.33;;
20093;SDS011;10206;48.012;10.030;2022-12-18T12:13:30;33.60;;;13.07;;
20093;SDS011;10206;48.012;10.030;2022-12-18T12:16:04;30.63;;;13.47;;
20093;SDS011;10206;48.012;10.030;2022-12-18T12:24:53;31.63;;;14.20;;
20093;SDS011;10206;48.012;10.030;2022-12-18T12:35:19;33.03;;;14.60;;
20093;SDS011;10206;48.012;10.030;2022-12-18T12:41:02;31.50;;;13.00;;
20093;SDS011;10206;48.012;10.030;2022-12-18T12:46:12;39.47;;;15.20;;
20093;SDS011;10206;48.012;10.030;2022-12-18T12:53:47;41.70;;;16.90;;
20093;SDS011;10206;48.012;10.030;2022-12-18T12:56:14;38.67;;;17.10;;
20093;SDS011;10206;48.012;10.030;2022-12-18T12:58:52;34.17;;;15.43;;
20093;SDS011;10206;48.012;10.030;2022-12-18T13:06:45;42.37;;;16.33;;
20093;SDS011;10206;48.012;10.030;2022-12-18T13:12:51;42.73;;;16.33;;
20093;SDS011;10206;48.012;10.030;2022-12-18T13:15:37;42.50;;;16.37;;
20093;SDS011;10206;48.012;10.030;2022-12-18T13:20:37;41.67;;;16.87;;
20093;SDS011;10206;48.012;10.030;2022-12-18T13:31:57;55.60;;;21.37;;
20093;SDS011;10206;48.012;10.030;2022-12-18T13:36:46;48.70;;;20.43;;
20093;SDS011;10206;48.012;10.030;2022-12-18T13:41:46;50.63;;;21.60;;
20093;SDS011;10206;48.012;10.030;2022-12-18T13:46:51;40.07;;;17.27;;
20093;SDS011;10206;48.012;10.030;2022-12-18T13:51:48;39.33;;;16.23;;
20093;SDS011;10206;48.012;10.030;2022-12-18T13:57:02;41.27;;;18.13;;
20093;SDS011;10206;48.012;10.030;2022-12-18T13:59:37;35.53;;;15.67;;
20093;SDS011;10206;48.012;10.030;2022-12-18T14:02:12;38.70;;;15.87;;
20093;SDS011;10206;48.012;10.030;2022-12-18T14:04:40;41.17;;;18.27;;
20093;SDS011;10206;48.012;10.030;2022-12-18T14:07:10;45.73;;;18.07;;
20093;SDS011;10206;48.012;10.030;2022-12-18T14:09:40;42.40;;;17.83;;
20093;SDS011;10206;48.012;10.030;2022-12-18T14:12:14;35.40;;;15.77;;
20093;SDS011;10206;48.012;10.030;2022-12-18T14:18:21;49.67;;;18.53;;
20093;SDS011;10206;48.012;10.030;2022-12-18T14:20:58;42.90;;;17.13;;
20093;SDS011;10206;48.012;10.030;2022-12-18T14:23:40;47.70;;;18.03;;
20093;SDS011;10206;48.012;10.030;2022-12-18T14:28:54;45.07;;;18.17;;
20093;SDS011;10206;48.012;10.030;2022-12-18T14:31:23;51.50;;;20.47;;
20093;SDS011;10206;48.012;10.030;2022-12-18T14:33:50;57.50;;;22.43;;
20093;SDS011;10206;48.012;10.030;2022-12-18T14:36:18;42.97;;;20.17;;
20093;SDS011;10206;48.012;10.030;2022-12-18T14:38:53;44.10;;;18.03;;
20093;SDS011;10206;48.012;10.030;2022-12-18T14:41:20;40.40;;;16.47;;
20093;SDS011;10206;48.012;10.030;2022-12-18T14:43:48;41.00;;;17.53;;
20093;SDS011;10206;48.012;10.030;2022-12-18T14:46:35;46.37;;;18.60;;
20093;SDS011;10206;48.012;10.030;2022-12-18T14:49:03;42.03;;;18.23;;
20093;SDS011;10206;48.012;10.030;2022-12-18T14:51:52;39.80;;;16.67;;
20093;SDS011;10206;48.012;10.030;2022-12-18T14:54:20;46.93;;;17.90;;
20093;SDS011;10206;48.012;10.030;2022-12-18T14:56:49;45.67;;;19.27;;
20093;SDS011;10206;48.012;10.030;2022-12-18T14:59:22;48.23;;;20.67;;
20093;SDS011;10206;48.012;10.030;2022-12-18T15:04:44;45.73;;;19.67;;
20093;SDS011;10206;48.012;10.030;2022-12-18T15:07:15;48.07;;;20.67;;
20093;SDS011;10206;48.012;10.030;2022-12-18T15:09:44;48.83;;;19.70;;
20093;SDS011;10206;48.012;10.030;2022-12-18T15:20:56;46.90;;;19.87;;
20093;SDS011;10206;48.012;10.030;2022-12-18T15:26:09;52.53;;;21.90;;
20093;SDS011;10206;48.012;10.030;2022-12-18T15:28:38;49.63;;;20.73;;
20093;SDS011;10206;48.012;10.030;2022-12-18T15:31:33;49.40;;;19.93;;
20093;SDS011;10206;48.012;10.030;2022-12-18T15:34:12;46.60;;;19.67;;
20093;SDS011;10206;48.012;10.030;2022-12-18T15:36:45;48.63;;;19.90;;
20093;SDS011;10206;48.012;10.030;2022-12-18T15:39:12;47.80;;;20.83;;
20093;SDS011;10206;48.012;10.030;2022-12-18T15:41:38;45.30;;;19.77;;
20093;SDS011;10206;48.012;10.030;2022-12-18T15:47:00;51.00;;;20.97;;
20093;SDS011;10206;48.012;10.030;2022-12-18T15:49:26;50.17;;;21.53;;
20093;SDS011;10206;48.012;10.030;2022-12-18T15:51:53;52.50;;;21.57;;
20093;SDS011;10206;48.012;10.030;2022-12-18T15:54:22;53.87;;;21.20;;
20093;SDS011;10206;48.012;10.030;2022-12-18T15:57:08;57.67;;;22.87;;
20093;SDS011;10206;48.012;10.030;2022-12-18T15:59:47;56.33;;;22.17;;
20093;SDS011;10206;48.012;10.030;2022-12-18T16:02:16;61.60;;;22.77;;
20093;SDS011;10206;48.012;10.030;2022-12-18T16:04:43;53.73;;;21.17;;
20093;SDS011;10206;48.012;10.030;2022-12-18T16:07:10;53.43;;;21.53;;
20093;SDS011;10206;48.012;10.030;2022-12-18T16:09:37;51.63;;;20.63;;
20093;SDS011;10206;48.012;10.030;2022-12-18T16:12:04;53.40;;;22.10;;
20093;SDS011;10206;48.012;10.030;2022-12-18T16:14:32;56.83;;;22.07;;
20093;SDS011;10206;48.012;10.030;2022-12-18T16:16:59;56.50;;;22.10;;
20093;SDS011;10206;48.012;10.030;2022-12-18T16:19:28;64.10;;;24.57;;
20093;SDS011;10206;48.012;10.030;2022-12-18T16:21:55;70.20;;;26.30;;
20093;SDS011;10206;48.012;10.030;2022-12-18T16:24:29;60.43;;;22.37;;
20093;SDS011;10206;48.012;10.030;2022-12-18T16:26:58;64.00;;;23.00;;
20093;SDS011;10206;48.012;10.030;2022-12-18T16:29:25;69.67;;;24.23;;
20093;SDS011;10206;48.012;10.030;2022-12-18T16:31:53;70.03;;;28.13;;
20093;SDS011;10206;48.012;10.030;2022-12-18T16:34:21;67.23;;;25.53;;
20093;SDS011;10206;48.012;10.030;2022-12-18T16:36:53;75.23;;;26.60;;
20093;SDS011;10206;48.012;10.030;2022-12-18T16:39:21;64.73;;;24.67;;
20093;SDS011;10206;48.012;10.030;2022-12-18T16:41:47;63.03;;;24.53;;
20093;SDS011;10206;48.012;10.030;2022-12-18T16:44:14;60.23;;;22.53;;
20093;SDS011;10206;48.012;10.030;2022-12-18T16:46:40;59.47;;;22.57;;
20093;SDS011;10206;48.012;10.030;2022-12-18T16:49:13;62.97;;;22.33;;
20093;SDS011;10206;48.012;10.030;2022-12-18T16:51:40;60.77;;;23.57;;
20093;SDS011;10206;48.012;10.030;2022-12-18T16:54:06;56.40;;;22.17;;
20093;SDS011;10206;48.012;10.030;2022-12-18T16:56:33;60.53;;;23.17;;
20093;SDS011;10206;48.012;10.030;2022-12-18T16:58:59;61.07;;;21.97;;
20093;SDS011;10206;48.012;10.030;2022-12-18T17:01:27;61.17;;;22.93;;